createdAt,value
2019-03-17T00:01:43.260Z,99151.00
2019-03-17T00:04:13.664Z,99130.00
2019-03-17T00:06:44.056Z,99142.00
2019-03-17T00:09:14.363Z,99130.00
2019-03-17T00:11:46.033Z,99125.00
2019-03-17T00:14:16.553Z,99128.00
2019-03-17T00:16:47.424Z,99132.00
2019-03-17T00:19:18.000Z,99115.00
2019-03-17T00:21:48.494Z,99109.00
2019-03-17T00:24:18.910Z,99113.00
2019-03-17T00:26:49.280Z,99106.00
2019-03-17T00:29:19.607Z,99111.00
2019-03-17T00:31:49.931Z,99099.00
2019-03-17T00:34:20.216Z,99111.00
2019-03-17T00:36:50.562Z,99102.00
2019-03-17T00:39:20.944Z,99116.00
2019-03-17T00:41:52.520Z,99090.00
2019-03-17T00:44:23.146Z,99108.00
2019-03-17T00:46:53.544Z,99108.00
2019-03-17T00:49:25.249Z,99102.00
2019-03-17T00:51:55.596Z,99087.00
2019-03-17T00:54:26.037Z,99092.00
2019-03-17T00:56:56.508Z,99101.00
2019-03-17T00:59:26.919Z,99084.00
2019-03-17T01:01:57.658Z,99087.00
2019-03-17T01:04:31.260Z,99082.00
2019-03-17T01:07:01.554Z,99086.00
2019-03-17T01:09:31.902Z,99080.00
2019-03-17T01:12:02.314Z,99070.00
2019-03-17T01:14:32.603Z,99049.00
2019-03-17T01:17:03.107Z,99052.00
2019-03-17T01:19:33.808Z,99047.00
2019-03-17T01:22:04.232Z,99047.00
2019-03-17T01:24:34.627Z,99042.00
2019-03-17T01:27:05.043Z,99033.00
2019-03-17T01:29:37.952Z,99031.00
2019-03-17T01:32:08.326Z,99023.00
2019-03-17T01:34:39.038Z,99020.00
2019-03-17T01:37:09.511Z,99029.00
2019-03-17T01:39:39.932Z,99018.00
2019-03-17T01:42:10.350Z,99015.00
2019-03-17T01:44:40.770Z,99014.00
2019-03-17T01:47:11.111Z,99015.00
2019-03-17T01:49:41.540Z,99005.00
2019-03-17T01:52:12.066Z,99000.00
2019-03-17T01:54:42.556Z,98996.00
2019-03-17T01:57:13.193Z,98984.00
2019-03-17T01:59:43.594Z,98976.00
2019-03-17T02:02:13.942Z,98979.00
2019-03-17T02:04:44.291Z,98966.00
2019-03-17T02:07:14.615Z,98974.00
2019-03-17T02:09:45.419Z,98955.00
2019-03-17T02:12:15.785Z,98957.00
2019-03-17T02:14:46.279Z,98962.00
2019-03-17T02:17:16.574Z,98952.00
2019-03-17T02:19:47.404Z,98940.00
2019-03-17T02:22:18.198Z,98949.00
2019-03-17T02:24:48.730Z,98947.00
2019-03-17T02:27:19.636Z,98930.00
2019-03-17T02:29:50.086Z,98927.00
2019-03-17T02:32:20.602Z,98929.00
2019-03-17T02:34:52.724Z,98927.00
2019-03-17T02:37:23.130Z,98903.00
2019-03-17T02:39:53.929Z,98900.00
2019-03-17T02:42:24.229Z,98904.00
2019-03-17T02:44:54.898Z,98880.00
2019-03-17T02:47:25.840Z,98893.00
2019-03-17T02:49:56.263Z,98889.00
2019-03-17T02:52:28.260Z,98885.00
2019-03-17T02:54:58.589Z,98894.00
2019-03-17T02:57:29.040Z,98902.00
2019-03-17T02:59:59.605Z,98897.00
2019-03-17T03:02:30.022Z,98895.00
2019-03-17T03:05:00.664Z,98900.00
2019-03-17T03:07:31.037Z,98899.00
2019-03-17T03:10:01.528Z,98876.00
2019-03-17T03:12:31.795Z,98884.00
2019-03-17T03:15:02.124Z,98882.00
2019-03-17T03:17:32.482Z,98886.00
2019-03-17T03:20:02.807Z,98888.00
2019-03-17T03:22:33.152Z,98883.00
2019-03-17T03:25:03.453Z,98881.00
2019-03-17T03:27:33.960Z,98885.00
2019-03-17T03:30:04.944Z,98877.00
2019-03-17T03:32:35.699Z,98884.00
2019-03-17T03:35:06.221Z,98874.00
2019-03-17T03:37:36.721Z,98879.00
2019-03-17T03:40:07.355Z,98872.00
2019-03-17T03:42:38.323Z,98880.00
2019-03-17T03:45:09.326Z,98871.00
2019-03-17T03:47:39.763Z,98860.00
2019-03-17T03:50:10.691Z,98851.00
2019-03-17T03:52:41.109Z,98850.00
2019-03-17T03:55:11.502Z,98855.00
2019-03-17T03:57:41.780Z,98851.00
2019-03-17T04:00:12.401Z,98849.00
2019-03-17T04:02:43.238Z,98852.00
2019-03-17T04:05:13.551Z,98848.00
2019-03-17T04:07:45.771Z,98853.00
2019-03-17T04:10:16.356Z,98842.00
2019-03-17T04:12:46.925Z,98832.00
2019-03-17T04:15:17.258Z,98840.00
2019-03-17T04:17:47.659Z,98834.00
2019-03-17T04:20:18.049Z,98832.00
2019-03-17T04:22:48.806Z,98835.00
2019-03-17T04:25:19.179Z,98829.00
2019-03-17T04:27:49.759Z,98831.00
2019-03-17T04:30:20.243Z,98830.00
2019-03-17T04:32:50.591Z,98833.00
2019-03-17T04:35:20.959Z,98816.00
2019-03-17T04:37:51.521Z,98818.00
2019-03-17T04:40:22.105Z,98801.00
2019-03-17T04:42:52.534Z,98804.00
2019-03-17T04:45:22.885Z,98813.00
2019-03-17T04:47:53.205Z,98795.00
2019-03-17T04:50:23.625Z,98805.00
2019-03-17T04:52:53.958Z,98793.00
2019-03-17T04:55:24.327Z,98785.00
2019-03-17T04:57:54.657Z,98798.00
2019-03-17T05:00:24.871Z,98780.00
2019-03-17T05:02:55.140Z,98799.00
2019-03-17T05:05:26.483Z,98791.00
2019-03-17T05:07:59.058Z,98794.00
2019-03-17T05:10:29.221Z,98798.00
2019-03-17T05:12:59.347Z,98797.00
2019-03-17T05:15:29.473Z,98801.00
2019-03-17T05:17:59.633Z,98797.00
2019-03-17T05:20:30.310Z,98794.00
2019-03-17T05:23:00.544Z,98784.00
2019-03-17T05:25:30.782Z,98783.00
2019-03-17T05:28:01.200Z,98775.00
2019-03-17T05:30:31.450Z,98788.00
2019-03-17T05:33:01.976Z,98783.00
2019-03-17T05:35:33.934Z,98784.00
2019-03-17T05:38:04.419Z,98804.00
2019-03-17T05:40:35.087Z,98795.00
2019-03-17T05:43:05.422Z,98785.00
2019-03-17T05:45:35.870Z,98807.00
2019-03-17T05:48:06.382Z,98814.00
2019-03-17T05:50:37.319Z,98794.00
2019-03-17T05:53:07.789Z,98798.00
2019-03-17T05:55:40.209Z,98797.00
2019-03-17T05:58:12.617Z,98798.00
2019-03-17T06:00:43.085Z,98805.00
2019-03-17T06:03:16.011Z,98819.00
2019-03-17T06:05:46.875Z,98819.00
2019-03-17T06:08:17.364Z,98816.00
2019-03-17T06:10:47.897Z,98826.00
2019-03-17T06:13:18.749Z,98810.00
2019-03-17T06:15:49.495Z,98817.00
2019-03-17T06:18:19.996Z,98823.00
2019-03-17T06:20:50.286Z,98818.00
2019-03-17T06:23:20.892Z,98830.00
2019-03-17T06:25:51.534Z,98840.00
2019-03-17T06:28:22.151Z,98837.00
2019-03-17T06:30:55.249Z,98833.00
2019-03-17T06:33:25.925Z,98833.00
2019-03-17T06:35:56.781Z,98831.00
2019-03-17T06:38:27.730Z,98841.00
2019-03-17T06:40:58.349Z,98836.00
2019-03-17T06:43:29.180Z,98859.00
2019-03-17T06:45:59.777Z,98860.00
2019-03-17T06:48:30.374Z,98853.00
2019-03-17T06:51:01.188Z,98861.00
2019-03-17T06:53:31.663Z,98867.00
2019-03-17T06:56:02.297Z,98864.00
2019-03-17T06:58:33.427Z,98872.00
2019-03-17T07:01:03.959Z,98866.00
2019-03-17T07:03:34.661Z,98863.00
2019-03-17T07:06:06.343Z,98860.00
2019-03-17T07:08:40.346Z,98854.00
2019-03-17T07:11:11.639Z,98872.00
2019-03-17T07:13:42.713Z,98871.00
2019-03-17T07:16:14.975Z,98862.00
2019-03-17T07:18:47.198Z,98862.00
2019-03-17T07:21:19.437Z,98866.00
2019-03-17T07:23:50.362Z,98874.00
2019-03-17T07:26:20.868Z,98879.00
2019-03-17T07:28:51.432Z,98890.00
2019-03-17T07:31:22.259Z,98894.00
2019-03-17T07:33:52.811Z,98887.00
2019-03-17T07:36:23.431Z,98892.00
2019-03-17T07:38:53.989Z,98887.00
2019-03-17T07:41:24.673Z,98890.00
2019-03-17T07:43:59.264Z,98903.00
2019-03-17T07:46:30.112Z,98920.00
2019-03-17T07:49:00.586Z,98904.00
2019-03-17T07:51:31.314Z,98908.00
2019-03-17T07:54:02.223Z,98917.00
2019-03-17T07:56:34.788Z,98899.00
2019-03-17T07:59:06.077Z,98893.00
2019-03-17T08:01:36.623Z,98897.00
2019-03-17T08:04:07.312Z,98908.00
2019-03-17T08:06:37.945Z,98908.00
2019-03-17T08:09:09.976Z,98924.00
2019-03-17T08:11:40.350Z,98930.00
2019-03-17T08:14:11.642Z,98922.00
2019-03-17T08:16:42.481Z,98910.00
2019-03-17T08:19:13.366Z,98922.00
2019-03-17T08:21:44.300Z,98925.00
2019-03-17T08:24:15.274Z,98926.00
2019-03-17T08:26:46.140Z,98926.00
2019-03-17T08:29:16.834Z,98912.00
2019-03-17T08:31:47.984Z,98925.00
2019-03-17T08:34:19.042Z,98925.00
2019-03-17T08:36:49.758Z,98934.00
2019-03-17T08:39:20.436Z,98933.00
2019-03-17T08:41:51.327Z,98936.00
2019-03-17T08:44:21.846Z,98937.00
2019-03-17T08:46:52.744Z,98947.00
2019-03-17T08:49:23.728Z,98945.00
2019-03-17T08:51:54.493Z,98958.00
2019-03-17T08:54:25.289Z,98957.00
2019-03-17T08:56:56.499Z,98957.00
2019-03-17T08:59:27.283Z,98964.00
2019-03-17T09:01:57.982Z,98965.00
2019-03-17T09:04:28.705Z,98967.00
2019-03-17T09:06:59.310Z,98958.00
2019-03-17T09:09:31.772Z,98952.00
2019-03-17T09:12:04.143Z,98975.00
2019-03-17T09:14:34.924Z,99031.00
2019-03-17T09:17:14.269Z,99061.00
2019-03-17T09:19:38.757Z,99062.00
2019-03-17T09:22:12.748Z,99083.00
2019-03-17T09:24:43.787Z,99082.00
2019-03-17T09:27:14.596Z,99084.00
2019-03-17T09:29:46.734Z,99076.00
2019-03-17T09:32:18.870Z,99100.00
2019-03-17T09:34:49.576Z,99097.00
2019-03-17T09:37:20.358Z,99106.00
2019-03-17T09:39:51.067Z,99113.00
2019-03-17T09:42:21.647Z,99100.00
2019-03-17T09:44:54.268Z,99105.00
2019-03-17T09:47:24.858Z,99101.00
2019-03-17T09:49:55.462Z,99093.00
2019-03-17T09:52:27.982Z,99078.00
2019-03-17T09:54:58.650Z,99086.00
2019-03-17T09:57:29.648Z,99090.00
2019-03-17T10:00:01.760Z,99103.00
2019-03-17T10:02:32.820Z,99109.00
2019-03-17T10:05:03.494Z,99116.00
2019-03-17T10:07:34.344Z,99123.00
2019-03-17T10:10:06.002Z,99119.00
2019-03-17T10:12:36.859Z,99114.00
2019-03-17T10:15:09.043Z,99131.00
2019-03-17T10:17:42.028Z,99123.00
2019-03-17T10:20:14.700Z,99138.00
2019-03-17T10:22:45.477Z,99136.00
2019-03-17T10:25:16.444Z,99130.00
2019-03-17T10:27:47.277Z,99129.00
2019-03-17T10:30:17.805Z,99138.00
2019-03-17T10:32:48.710Z,99155.00
2019-03-17T10:35:19.523Z,99153.00
2019-03-17T10:37:50.527Z,99156.00
2019-03-17T10:40:21.707Z,99159.00
2019-03-17T10:42:52.529Z,99162.00
2019-03-17T10:45:23.006Z,99164.00
2019-03-17T10:47:54.668Z,99165.00
2019-03-17T10:50:25.337Z,99182.00
2019-03-17T10:52:55.949Z,99170.00
2019-03-17T10:55:27.035Z,99182.00
2019-03-17T10:57:57.799Z,99165.00
2019-03-17T11:00:28.610Z,99184.00
2019-03-17T11:02:59.331Z,99185.00
2019-03-17T11:05:30.060Z,99187.00
2019-03-17T11:08:01.285Z,99195.00
2019-03-17T11:10:32.255Z,99191.00
2019-03-17T11:13:02.983Z,99187.00
2019-03-17T11:15:39.143Z,99194.00
2019-03-17T11:18:11.138Z,99194.00
2019-03-17T11:20:41.631Z,99198.00
2019-03-17T11:23:12.383Z,99196.00
2019-03-17T11:25:43.042Z,99207.00
2019-03-17T11:28:14.121Z,99223.00
2019-03-17T11:30:46.614Z,99232.00
2019-03-17T11:33:17.042Z,99212.00
2019-03-17T11:35:47.724Z,99225.00
2019-03-17T11:38:19.709Z,99213.00
2019-03-17T11:40:50.464Z,99216.00
2019-03-17T11:43:21.103Z,99212.00
2019-03-17T11:45:52.290Z,99217.00
2019-03-17T11:48:23.161Z,99216.00
2019-03-17T11:50:54.435Z,99214.00
2019-03-17T11:53:27.523Z,99218.00
2019-03-17T11:55:58.354Z,99219.00
2019-03-17T11:58:29.426Z,99210.00
2019-03-17T12:01:00.675Z,99211.00
2019-03-17T12:03:32.129Z,99204.00
2019-03-17T12:06:06.052Z,99204.00
2019-03-17T12:08:37.073Z,99206.00
2019-03-17T12:11:07.993Z,99213.00
2019-03-17T12:13:38.746Z,99221.00
2019-03-17T12:16:10.033Z,99212.00
2019-03-17T12:18:42.897Z,99209.00
2019-03-17T12:21:16.231Z,99208.00
2019-03-17T12:23:47.399Z,99225.00
2019-03-17T12:26:20.198Z,99216.00
2019-03-17T12:28:50.930Z,99227.00
2019-03-17T12:31:21.793Z,99211.00
2019-03-17T12:33:52.706Z,99207.00
2019-03-17T12:36:23.313Z,99212.00
2019-03-17T12:38:54.180Z,99209.00
2019-03-17T12:41:25.536Z,99207.00
2019-03-17T12:43:56.225Z,99217.00
2019-03-17T12:46:27.151Z,99220.00
2019-03-17T12:48:57.858Z,99218.00
2019-03-17T12:51:28.741Z,99196.00
2019-03-17T12:54:02.032Z,99193.00
2019-03-17T12:56:33.329Z,99198.00
2019-03-17T12:59:04.425Z,99191.00
2019-03-17T13:01:38.823Z,99210.00
2019-03-17T13:04:09.799Z,99209.00
2019-03-17T13:06:40.823Z,99191.00
2019-03-17T13:09:11.941Z,99215.00
2019-03-17T13:11:44.380Z,99225.00
2019-03-17T13:14:15.434Z,99226.00
2019-03-17T13:16:46.193Z,99210.00
2019-03-17T13:19:16.990Z,99223.00
2019-03-17T13:21:47.919Z,99221.00
2019-03-17T13:24:18.551Z,99237.00
2019-03-17T13:26:51.901Z,99241.00
2019-03-17T13:29:22.749Z,99269.00
2019-03-17T13:31:53.422Z,99257.00
2019-03-17T13:34:24.157Z,99260.00
2019-03-17T13:36:55.041Z,99260.00
2019-03-17T13:39:25.551Z,99278.00
2019-03-17T13:41:56.653Z,99282.00
2019-03-17T13:44:27.533Z,99281.00
2019-03-17T13:46:58.778Z,99285.00
2019-03-17T13:49:29.457Z,99280.00
2019-03-17T13:52:00.407Z,99283.00
2019-03-17T13:54:31.507Z,99287.00
2019-03-17T13:57:02.167Z,99289.00
2019-03-17T13:59:32.988Z,99298.00
2019-03-17T14:02:04.116Z,99286.00
2019-03-17T14:04:35.083Z,99307.00
2019-03-17T14:07:05.689Z,99314.00
2019-03-17T14:09:36.569Z,99329.00
2019-03-17T14:12:09.397Z,99327.00
2019-03-17T14:14:40.230Z,99323.00
2019-03-17T14:17:11.249Z,99322.00
2019-03-17T14:19:45.314Z,99336.00
2019-03-17T14:22:16.628Z,99342.00
2019-03-17T14:24:47.435Z,99348.00
2019-03-17T14:27:18.083Z,99353.00
2019-03-17T14:29:49.242Z,99371.00
2019-03-17T14:32:20.264Z,99418.00
2019-03-17T14:34:50.679Z,99413.00
2019-03-17T14:37:24.339Z,99433.00
2019-03-17T14:39:55.583Z,99411.00
2019-03-17T14:42:26.488Z,99404.00
2019-03-17T14:44:57.714Z,99404.00
2019-03-17T14:47:28.395Z,99412.00
2019-03-17T14:49:59.258Z,99407.00
2019-03-17T14:52:30.030Z,99411.00
2019-03-17T14:55:02.909Z,99409.00
2019-03-17T14:57:34.241Z,99406.00
2019-03-17T15:00:06.844Z,99400.00
2019-03-17T15:02:37.599Z,99411.00
2019-03-17T15:05:11.241Z,99407.00
2019-03-17T15:08:01.121Z,99408.00
2019-03-17T15:10:32.052Z,99402.00
2019-03-17T15:13:04.602Z,99412.00
2019-03-17T15:15:37.826Z,99434.00
2019-03-17T15:18:08.783Z,99433.00
2019-03-17T15:20:39.735Z,99450.00
2019-03-17T15:23:10.589Z,99468.00
2019-03-17T15:25:41.436Z,99475.00
2019-03-17T15:28:12.435Z,99466.00
2019-03-17T15:30:56.903Z,99472.00
2019-03-17T15:33:15.752Z,99461.00
2019-03-17T15:35:47.090Z,99466.00
2019-03-17T15:38:18.022Z,99468.00
2019-03-17T15:40:51.964Z,99464.00
2019-03-17T15:43:21.705Z,99467.00
2019-03-17T15:45:52.758Z,99469.00
2019-03-17T15:48:24.018Z,99469.00
2019-03-17T15:50:55.369Z,99462.00
2019-03-17T15:53:26.332Z,99465.00
2019-03-17T15:55:57.432Z,99471.00
2019-03-17T15:58:28.595Z,99469.00
2019-03-17T16:00:59.616Z,99489.00
2019-03-17T16:03:30.368Z,99471.00
2019-03-17T16:06:01.061Z,99468.00
2019-03-17T16:08:31.801Z,99470.00
2019-03-17T16:11:02.200Z,99469.00
2019-03-17T16:13:32.850Z,99480.00
2019-03-17T16:16:03.874Z,99483.00
2019-03-17T16:18:34.680Z,99498.00
2019-03-17T16:21:05.475Z,99496.00
2019-03-17T16:23:36.147Z,99508.00
2019-03-17T16:26:07.956Z,99505.00
2019-03-17T16:28:38.757Z,99507.00
2019-03-17T16:31:11.216Z,99510.00
2019-03-17T16:33:42.367Z,99523.00
2019-03-17T16:36:12.942Z,99524.00
2019-03-17T16:38:43.555Z,99525.00
2019-03-17T16:41:14.218Z,99517.00
2019-03-17T16:43:44.870Z,99534.00
2019-03-17T16:46:15.528Z,99531.00
2019-03-17T16:48:46.385Z,99540.00
2019-03-17T16:51:17.004Z,99543.00
2019-03-17T16:53:47.501Z,99542.00
2019-03-17T16:56:17.852Z,99543.00
2019-03-17T16:58:50.742Z,99545.00
2019-03-17T17:01:21.956Z,99554.00
2019-03-17T17:03:52.936Z,99550.00
2019-03-17T17:06:24.510Z,99564.00
2019-03-17T17:08:54.925Z,99553.00
2019-03-17T17:11:25.391Z,99554.00
2019-03-17T17:13:56.331Z,99560.00
2019-03-17T17:16:29.546Z,99562.00
2019-03-17T17:18:59.162Z,99567.00
2019-03-17T17:21:29.715Z,99571.00
2019-03-17T17:24:00.771Z,99583.00
2019-03-17T17:26:37.589Z,99586.00
2019-03-17T17:29:03.394Z,99590.00
2019-03-17T17:31:33.749Z,99591.00
2019-03-17T17:34:04.481Z,99601.00
2019-03-17T17:36:36.776Z,99608.00
2019-03-17T17:39:09.549Z,99619.00
2019-03-17T17:41:39.751Z,99620.00
2019-03-17T17:44:09.976Z,99615.00
2019-03-17T17:46:40.041Z,99621.00
2019-03-17T17:49:10.319Z,99617.00
2019-03-17T17:51:40.418Z,99623.00
2019-03-17T17:54:10.482Z,99624.00
2019-03-17T17:56:40.759Z,99617.00
2019-03-17T17:59:13.316Z,99613.00
2019-03-17T18:01:43.992Z,99617.00
2019-03-17T18:04:33.359Z,99614.00
2019-03-17T18:07:05.570Z,99627.00
2019-03-17T18:09:38.831Z,99633.00
2019-03-17T18:12:20.168Z,99625.00
2019-03-17T18:14:41.210Z,99633.00
2019-03-17T18:17:11.699Z,99634.00
2019-03-17T18:19:42.403Z,99630.00
2019-03-17T18:22:12.791Z,99624.00
2019-03-17T18:24:43.357Z,99632.00
2019-03-17T18:27:14.531Z,99635.00
2019-03-17T18:29:46.427Z,99647.00
2019-03-17T18:32:16.817Z,99664.00
2019-03-17T18:34:47.127Z,99661.00
2019-03-17T18:37:19.180Z,99659.00
2019-03-17T18:39:49.503Z,99665.00
2019-03-17T18:42:19.835Z,99664.00
2019-03-17T18:44:50.133Z,99665.00
2019-03-17T18:47:20.485Z,99663.00
2019-03-17T18:49:50.996Z,99664.00
2019-03-17T18:52:21.788Z,99670.00
2019-03-17T18:54:52.075Z,99678.00
2019-03-17T18:57:22.530Z,99681.00
2019-03-17T18:59:52.953Z,99677.00
2019-03-17T19:02:23.572Z,99683.00
2019-03-17T19:04:53.978Z,99688.00
2019-03-17T19:07:24.507Z,99694.00
2019-03-17T19:09:55.021Z,99694.00
2019-03-17T19:12:26.479Z,99709.00
2019-03-17T19:14:56.815Z,99712.00
2019-03-17T19:17:27.201Z,99702.00
2019-03-17T19:19:57.892Z,99718.00
2019-03-17T19:22:31.125Z,99715.00
2019-03-17T19:25:01.352Z,99723.00
2019-03-17T19:27:31.869Z,99721.00
2019-03-17T19:30:02.393Z,99712.00
2019-03-17T19:32:32.913Z,99723.00
2019-03-17T19:35:05.269Z,99734.00
2019-03-17T19:37:36.371Z,99733.00
2019-03-17T19:40:07.199Z,99729.00
2019-03-17T19:42:37.625Z,99738.00
2019-03-17T19:45:08.754Z,99728.00
2019-03-17T19:47:41.585Z,99742.00
2019-03-17T19:50:14.250Z,99745.00
2019-03-17T19:52:45.797Z,99751.00
2019-03-17T19:55:16.569Z,99760.00
2019-03-17T19:57:47.020Z,99750.00
2019-03-17T20:00:19.198Z,99758.00
2019-03-17T20:02:49.705Z,99758.00
2019-03-17T20:05:20.164Z,99767.00
2019-03-17T20:07:53.970Z,99767.00
2019-03-17T20:10:24.345Z,99754.00
2019-03-17T20:12:54.656Z,99769.00
2019-03-17T20:15:25.282Z,99781.00
2019-03-17T20:17:55.716Z,99774.00
2019-03-17T20:20:25.985Z,99786.00
2019-03-17T20:22:56.471Z,99791.00
2019-03-17T20:25:28.646Z,99788.00
2019-03-17T20:27:59.066Z,99798.00
2019-03-17T20:30:29.722Z,99800.00
2019-03-17T20:33:01.083Z,99797.00
2019-03-17T20:35:33.468Z,99797.00
2019-03-17T20:38:04.027Z,99811.00
2019-03-17T20:40:35.811Z,99800.00
2019-03-17T20:43:18.557Z,99799.00
2019-03-17T20:45:39.844Z,99812.00
2019-03-17T20:48:10.530Z,99812.00
2019-03-17T20:50:41.205Z,99792.00
2019-03-17T20:53:11.566Z,99811.00
2019-03-17T20:55:42.075Z,99809.00
2019-03-17T20:58:12.688Z,99825.00
2019-03-17T21:00:43.269Z,99823.00
2019-03-17T21:03:13.736Z,99824.00
2019-03-17T21:05:44.186Z,99831.00
2019-03-17T21:08:14.452Z,99832.00
2019-03-17T21:10:45.103Z,99827.00
2019-03-17T21:13:17.071Z,99844.00
2019-03-17T21:15:47.682Z,99823.00
2019-03-17T21:18:18.376Z,99831.00
2019-03-17T21:20:49.187Z,99843.00
2019-03-17T21:23:19.833Z,99850.00
2019-03-17T21:25:50.594Z,99846.00
2019-03-17T21:28:21.520Z,99852.00
2019-03-17T21:30:51.929Z,99832.00
2019-03-17T21:33:22.489Z,99849.00
2019-03-17T21:35:53.079Z,99845.00
2019-03-17T21:38:23.618Z,99842.00
2019-03-17T21:41:06.495Z,99845.00
2019-03-17T21:43:27.728Z,99866.00
2019-03-17T21:45:58.354Z,99854.00
2019-03-17T21:48:28.851Z,99868.00
2019-03-17T21:50:59.230Z,99850.00
2019-03-17T21:53:32.660Z,99849.00
2019-03-17T21:56:02.944Z,99851.00
2019-03-17T21:58:33.637Z,99847.00
2019-03-17T22:01:04.514Z,99857.00
2019-03-17T22:03:36.202Z,99870.00
2019-03-17T22:06:07.062Z,99878.00
2019-03-17T22:08:37.692Z,99883.00
2019-03-17T22:11:09.054Z,99882.00
2019-03-17T22:13:39.543Z,99883.00
2019-03-17T22:16:10.147Z,99887.00
2019-03-17T22:18:40.798Z,99893.00
2019-03-17T22:21:13.054Z,99892.00
2019-03-17T22:23:43.646Z,99890.00
2019-03-17T22:26:14.156Z,99889.00
2019-03-17T22:28:44.815Z,99891.00
2019-03-17T22:31:16.766Z,99898.00
2019-03-17T22:33:47.313Z,99899.00
2019-03-17T22:36:17.923Z,99900.00
2019-03-17T22:38:48.789Z,99901.00
2019-03-17T22:41:19.700Z,99892.00
2019-03-17T22:43:50.205Z,99907.00
2019-03-17T22:46:21.103Z,99908.00
2019-03-17T22:48:53.050Z,99900.00
2019-03-17T22:51:23.662Z,99911.00
2019-03-17T22:53:54.774Z,99912.00
2019-03-17T22:56:25.387Z,99919.00
2019-03-17T22:58:57.448Z,99908.00
2019-03-17T23:01:28.020Z,99913.00
2019-03-17T23:03:58.704Z,99916.00
2019-03-17T23:06:29.576Z,99919.00
2019-03-17T23:09:02.834Z,99925.00
2019-03-17T23:11:35.267Z,99935.00
2019-03-17T23:14:06.104Z,99927.00
2019-03-17T23:16:39.010Z,99928.00
2019-03-17T23:19:08.914Z,99935.00
2019-03-17T23:21:39.472Z,99928.00
2019-03-17T23:24:12.428Z,99924.00
2019-03-17T23:26:43.154Z,99935.00
2019-03-17T23:29:13.818Z,99933.00
2019-03-17T23:31:45.942Z,99924.00
2019-03-17T23:34:16.610Z,99919.00
2019-03-17T23:36:47.136Z,99922.00
2019-03-17T23:39:18.663Z,99913.00
2019-03-17T23:41:49.260Z,99914.00
2019-03-17T23:44:20.260Z,99915.00
2019-03-17T23:46:51.214Z,99921.00
2019-03-17T23:49:21.967Z,99932.00
2019-03-17T23:51:52.426Z,99926.00
2019-03-17T23:54:23.071Z,99918.00
2019-03-17T23:56:53.672Z,99923.00
2019-03-17T23:59:24.096Z,99934.00
